Time;durP1;ratioP1;P1;durP2;ratioP2;P2;SDS_P1;SDS_P2;PMS_P1;PMS_P2;Temp;Humidity;BMP_temperature;BMP_pressure;BME280_temperature;BME280_humidity;BME280_pressure;Samples;Min_cycle;Max_cycle;Signal;HPM_P1;HPM_P2
2022/05/30 00:00:29;;;;;;;;;;;15.80;68.40;;;;;;6185580;23;20407;-78
2022/05/30 00:02:56;;;;;;;;;;;15.80;67.90;;;;;;6160451;23;19983;-78
2022/05/30 00:05:23;;;;;;;;;;;15.80;68.00;;;;;;6160380;23;20360;-78
2022/05/30 00:07:50;;;;;;;;;;;15.80;68.20;;;;;;6160338;23;20380;-78
2022/05/30 00:10:19;;;;;;;;;;;15.90;68.50;;;;;;6160057;23;19924;-81
2022/05/30 00:12:46;;;;;;;;;;;15.90;68.50;;;;;;6160823;23;19921;-80
2022/05/30 00:15:14;;;;;;;;;;;15.90;68.20;;;;;;6160623;23;19924;-78
2022/05/30 00:17:41;;;;;;;;;;;15.90;68.20;;;;;;6160229;23;19927;-80
2022/05/30 00:20:08;;;;;;;;;;;15.90;68.20;;;;;;6160447;23;19920;-78
2022/05/30 00:22:35;;;;;;;;;;;15.90;68.20;;;;;;6160829;23;19994;-80
2022/05/30 00:25:02;;;;;;;;;;;15.80;68.30;;;;;;6160111;23;19921;-80
2022/05/30 00:27:30;;;;;;;;;;;15.80;68.70;;;;;;6160182;23;19920;-78
2022/05/30 00:29:56;;;;;;;;;;;15.80;68.90;;;;;;6186854;23;19924;-80
2022/05/30 00:32:23;;;;;;;;;;;15.70;67.70;;;;;;6160109;23;19920;-79
2022/05/30 00:34:50;;;;;;;;;;;15.60;67.40;;;;;;6160281;23;19974;-80
2022/05/30 00:37:17;;;;;;;;;;;15.60;67.80;;;;;;6185172;23;19931;-80
2022/05/30 00:39:43;;;;;;;;;;;15.60;67.70;;;;;;6160425;23;19971;-81
2022/05/30 00:42:17;;;;;;;;;;;15.60;68.40;;;;;;6160770;23;20342;-80
2022/05/30 00:44:45;;;;;;;;;;;15.50;68.10;;;;;;6159850;23;19920;-78
2022/05/30 00:47:12;;;;;;;;;;;15.50;67.70;;;;;;6158965;23;19986;-80
2022/05/30 00:49:41;;;;;;;;;;;15.50;68.30;;;;;;6160530;23;19921;-78
2022/05/30 00:52:11;;;;;;;;;;;15.50;68.00;;;;;;6185379;23;19920;-78
2022/05/30 00:55:01;;;;;;;;;;;15.50;67.70;;;;;;6160037;23;19971;-78
2022/05/30 00:57:29;;;;;;;;;;;15.60;67.60;;;;;;6159721;23;20344;-78
2022/05/30 00:59:57;;;;;;;;;;;15.60;67.40;;;;;;6160006;23;19924;-80
2022/05/30 01:02:26;;;;;;;;;;;15.60;67.70;;;;;;6160185;23;19990;-78
2022/05/30 01:07:40;;;;;;;;;;;15.60;67.40;;;;;;6186302;23;19920;-78
2022/05/30 01:10:09;;;;;;;;;;;15.70;67.40;;;;;;6159967;23;19921;-78
2022/05/30 01:12:37;;;;;;;;;;;15.70;67.40;;;;;;6160540;23;19920;-80
2022/05/30 01:15:09;;;;;;;;;;;15.70;67.20;;;;;;6159989;23;19975;-78
2022/05/30 01:17:48;;;;;;;;;;;15.70;67.10;;;;;;6159891;23;20304;-78
2022/05/30 01:20:41;;;;;;;;;;;15.70;67.10;;;;;;6160563;23;19987;-78
2022/05/30 01:23:21;;;;;;;;;;;15.70;67.70;;;;;;6137679;23;19925;-81
2022/05/30 01:25:54;;;;;;;;;;;15.70;68.40;;;;;;6160140;23;19974;-80
2022/05/30 01:28:24;;;;;;;;;;;15.70;68.70;;;;;;6159994;23;19920;-79
2022/05/30 01:30:51;;;;;;;;;;;15.70;69.00;;;;;;6160103;23;19921;-78
2022/05/30 01:33:18;;;;;;;;;;;15.70;69.30;;;;;;6160340;23;19932;-80
2022/05/30 01:35:45;;;;;;;;;;;15.70;69.60;;;;;;6154462;23;20297;-81
2022/05/30 01:38:11;;;;;;;;;;;15.70;70.70;;;;;;6155291;23;20398;-78
2022/05/30 01:40:38;;;;;;;;;;;15.70;70.90;;;;;;6154690;23;19920;-80
2022/05/30 01:43:05;;;;;;;;;;;15.70;70.60;;;;;;6156075;23;19925;-79
2022/05/30 01:45:32;;;;;;;;;;;15.70;70.80;;;;;;6154577;23;19921;-80
2022/05/30 01:47:59;;;;;;;;;;;15.70;71.60;;;;;;6154782;23;19920;-78
2022/05/30 01:50:27;;;;;;;;;;;15.70;72.50;;;;;;6154759;23;20358;-81
2022/05/30 01:52:54;;;;;;;;;;;15.60;72.20;;;;;;6154996;23;20412;-78
2022/05/30 01:55:20;;;;;;;;;;;15.60;72.40;;;;;;6154945;23;19920;-78
2022/05/30 01:57:47;;;;;;;;;;;15.60;73.00;;;;;;6154551;23;20301;-80
2022/05/30 02:00:20;;;;;;;;;;;15.50;72.70;;;;;;6154723;23;19925;-80
2022/05/30 02:02:47;;;;;;;;;;;15.50;72.60;;;;;;6155097;23;19924;-78
2022/05/30 02:05:14;;;;;;;;;;;15.50;72.40;;;;;;6154211;23;20011;-78
2022/05/30 02:07:42;;;;;;;;;;;15.50;72.20;;;;;;6154978;23;19920;-80
2022/05/30 02:10:09;;;;;;;;;;;15.50;72.00;;;;;;6155312;23;20297;-80
2022/05/30 02:12:35;;;;;;;;;;;15.50;71.90;;;;;;6157017;23;19921;-78
2022/05/30 02:15:02;;;;;;;;;;;15.50;71.70;;;;;;6156542;23;19921;-78
2022/05/30 02:17:31;;;;;;;;;;;15.50;71.70;;;;;;6156668;23;19975;-78
2022/05/30 02:19:58;;;;;;;;;;;15.50;72.10;;;;;;6156201;23;19925;-80
2022/05/30 02:22:30;;;;;;;;;;;15.50;73.30;;;;;;6156677;23;19924;-80
2022/05/30 02:24:57;;;;;;;;;;;15.50;72.50;;;;;;6156258;23;20354;-79
2022/05/30 02:27:24;;;;;;;;;;;15.50;72.80;;;;;;6156295;23;19924;-78
2022/05/30 02:29:52;;;;;;;;;;;15.40;72.60;;;;;;6156272;23;20350;-78
2022/05/30 02:32:19;;;;;;;;;;;15.50;74.10;;;;;;6156342;23;19944;-78
2022/05/30 02:37:31;;;;;;;;;;;15.40;74.00;;;;;;6187571;23;19920;-81
2022/05/30 02:39:58;;;;;;;;;;;15.30;73.40;;;;;;6162560;23;19928;-81
2022/05/30 02:42:25;;;;;;;;;;;15.30;73.40;;;;;;6161386;23;20265;-78
2022/05/30 02:44:51;;;;;;;;;;;15.30;73.40;;;;;;6161269;23;19983;-78
2022/05/30 02:47:18;;;;;;;;;;;15.30;73.40;;;;;;6161387;23;19920;-77
2022/05/30 02:49:45;;;;;;;;;;;15.30;73.30;;;;;;6161820;23;19920;-79
2022/05/30 02:52:12;;;;;;;;;;;15.20;73.00;;;;;;6161551;23;19924;-81
2022/05/30 02:54:39;;;;;;;;;;;15.20;72.70;;;;;;6161374;23;19920;-78
2022/05/30 02:57:06;;;;;;;;;;;15.20;72.50;;;;;;6160778;23;19991;-81
2022/05/30 02:59:33;;;;;;;;;;;15.20;72.60;;;;;;6160824;23;19921;-80
2022/05/30 03:02:00;;;;;;;;;;;15.30;72.70;;;;;;6161187;23;19920;-80
2022/05/30 03:04:26;;;;;;;;;;;15.30;73.10;;;;;;6161382;23;19920;-79
2022/05/30 03:06:53;;;;;;;;;;;15.30;73.90;;;;;;6161111;23;20352;-80
2022/05/30 03:09:20;;;;;;;;;;;15.20;74.00;;;;;;6160834;23;19924;-80
2022/05/30 03:11:47;;;;;;;;;;;15.20;73.80;;;;;;6161315;23;19975;-81
2022/05/30 03:14:14;;;;;;;;;;;15.20;73.60;;;;;;6161548;23;19924;-78
2022/05/30 03:16:40;;;;;;;;;;;15.20;73.20;;;;;;6161003;23;19979;-80
2022/05/30 03:19:07;;;;;;;;;;;15.20;73.00;;;;;;6161410;23;20337;-80
2022/05/30 03:21:34;;;;;;;;;;;15.20;72.70;;;;;;6160821;23;19928;-78
2022/05/30 03:24:01;;;;;;;;;;;15.20;72.50;;;;;;6161274;23;20369;-79
2022/05/30 03:26:28;;;;;;;;;;;15.20;72.20;;;;;;6161151;23;19920;-79
2022/05/30 03:28:54;;;;;;;;;;;15.20;72.30;;;;;;6160604;23;19924;-78
2022/05/30 03:31:21;;;;;;;;;;;15.20;72.50;;;;;;6160764;23;19924;-78
2022/05/30 03:33:48;;;;;;;;;;;15.10;72.40;;;;;;6160952;23;19920;-78
2022/05/30 03:36:16;;;;;;;;;;;15.10;72.30;;;;;;6160522;23;19967;-79
2022/05/30 03:38:44;;;;;;;;;;;15.10;72.30;;;;;;6160714;23;19942;-77
2022/05/30 03:41:10;;;;;;;;;;;15.10;73.10;;;;;;6186370;23;19920;-81
2022/05/30 03:43:37;;;;;;;;;;;15.10;72.70;;;;;;6160961;23;20269;-79
2022/05/30 03:46:04;;;;;;;;;;;15.10;72.50;;;;;;6161172;23;19944;-80
2022/05/30 03:48:31;;;;;;;;;;;15.10;72.60;;;;;;6161002;23;20003;-79
2022/05/30 03:50:58;;;;;;;;;;;15.00;73.10;;;;;;6161150;23;19978;-80
2022/05/30 03:53:24;;;;;;;;;;;15.10;72.90;;;;;;6160937;23;19920;-78
2022/05/30 03:55:52;;;;;;;;;;;15.00;72.60;;;;;;6185221;23;19920;-78
2022/05/30 03:58:19;;;;;;;;;;;15.00;73.10;;;;;;6160643;23;20273;-80
2022/05/30 04:00:46;;;;;;;;;;;15.10;73.40;;;;;;6160921;23;20253;-81
2022/05/30 04:03:12;;;;;;;;;;;15.10;74.10;;;;;;6160698;23;19939;-82
2022/05/30 04:05:40;;;;;;;;;;;15.10;74.20;;;;;;6161349;23;20289;-80
2022/05/30 04:08:07;;;;;;;;;;;15.10;74.00;;;;;;6160770;23;19921;-80
2022/05/30 04:10:34;;;;;;;;;;;15.10;74.10;;;;;;6187292;23;19920;-78
2022/05/30 04:13:06;;;;;;;;;;;15.10;74.20;;;;;;6159994;23;19924;-79
2022/05/30 04:15:33;;;;;;;;;;;15.10;73.60;;;;;;6160816;23;20265;-78
2022/05/30 04:17:59;;;;;;;;;;;15.10;73.70;;;;;;6160648;23;19998;-79
2022/05/30 04:20:27;;;;;;;;;;;15.10;73.70;;;;;;6160838;23;19924;-78
2022/05/30 04:22:53;;;;;;;;;;;15.10;74.20;;;;;;6160022;23;19975;-79
2022/05/30 04:25:20;;;;;;;;;;;15.10;73.50;;;;;;6160620;23;19979;-80
2022/05/30 04:27:47;;;;;;;;;;;15.10;74.20;;;;;;6160754;23;19921;-78
2022/05/30 04:30:14;;;;;;;;;;;15.10;73.90;;;;;;6160137;23;19939;-81
2022/05/30 04:32:41;;;;;;;;;;;15.10;74.40;;;;;;6160128;23;19920;-78
2022/05/30 04:35:08;;;;;;;;;;;15.10;73.90;;;;;;6184706;23;19940;-78
2022/05/30 04:37:35;;;;;;;;;;;15.10;73.90;;;;;;6160376;23;19975;-81
2022/05/30 04:40:02;;;;;;;;;;;15.20;74.80;;;;;;6160347;23;19975;-79
2022/05/30 04:42:29;;;;;;;;;;;15.20;74.20;;;;;;6159516;23;20068;-79
2022/05/30 04:44:56;;;;;;;;;;;15.20;74.40;;;;;;6184954;23;19951;-79
2022/05/30 04:47:23;;;;;;;;;;;15.20;74.90;;;;;;6160656;23;19970;-78
2022/05/30 04:49:50;;;;;;;;;;;15.10;75.30;;;;;;6160121;23;20350;-78
2022/05/30 04:52:17;;;;;;;;;;;15.10;75.70;;;;;;6160167;23;20341;-78
2022/05/30 04:54:44;;;;;;;;;;;15.10;75.80;;;;;;6160201;23;19920;-78
2022/05/30 04:57:11;;;;;;;;;;;15.10;76.10;;;;;;6159838;23;19927;-78
2022/05/30 04:59:41;;;;;;;;;;;15.10;76.20;;;;;;6186265;23;19920;-77
2022/05/30 05:02:09;;;;;;;;;;;15.10;76.10;;;;;;6160180;23;19921;-79
2022/05/30 05:04:39;;;;;;;;;;;15.10;76.20;;;;;;6159976;23;19921;-78
2022/05/30 05:07:07;;;;;;;;;;;15.10;76.10;;;;;;6160247;23;19924;-80
2022/05/30 05:09:36;;;;;;;;;;;15.10;76.20;;;;;;6185100;23;19971;-80
2022/05/30 05:12:03;;;;;;;;;;;15.10;76.70;;;;;;6160402;23;19924;-81
2022/05/30 05:14:30;;;;;;;;;;;15.00;76.30;;;;;;6160170;23;19979;-78
2022/05/30 05:16:57;;;;;;;;;;;15.00;76.00;;;;;;6159672;23;19927;-80
2022/05/30 05:19:24;;;;;;;;;;;15.10;75.80;;;;;;6160021;23;19926;-78
2022/05/30 05:21:51;;;;;;;;;;;15.10;75.60;;;;;;6160143;23;19920;-79
2022/05/30 05:24:18;;;;;;;;;;;15.10;75.10;;;;;;6159846;23;19924;-79
2022/05/30 05:26:45;;;;;;;;;;;15.00;75.00;;;;;;6160020;23;19924;-78
2022/05/30 05:29:12;;;;;;;;;;;15.10;74.80;;;;;;6162292;23;19920;-78
2022/05/30 05:31:39;;;;;;;;;;;15.00;74.50;;;;;;6158599;23;19983;-78
2022/05/30 05:34:08;;;;;;;;;;;15.00;74.30;;;;;;6158523;23;19920;-79
2022/05/30 05:36:37;;;;;;;;;;;15.00;74.10;;;;;;6162366;23;19924;-80
2022/05/30 05:39:04;;;;;;;;;;;15.00;73.90;;;;;;6185437;23;19975;-79
2022/05/30 05:41:31;;;;;;;;;;;15.10;73.80;;;;;;6189976;23;19974;-79
2022/05/30 05:43:58;;;;;;;;;;;15.00;73.70;;;;;;6166363;23;19924;-79
2022/05/30 05:46:26;;;;;;;;;;;15.00;73.50;;;;;;6187119;23;19924;-79
2022/05/30 05:48:54;;;;;;;;;;;15.10;73.30;;;;;;6161663;23;19920;-78
2022/05/30 05:51:21;;;;;;;;;;;15.10;73.20;;;;;;6163523;23;19920;-80
2022/05/30 05:53:48;;;;;;;;;;;15.20;73.40;;;;;;6162447;23;19920;-79
2022/05/30 05:56:19;;;;;;;;;;;15.20;73.10;;;;;;6168682;23;20337;-79
2022/05/30 05:58:47;;;;;;;;;;;15.30;73.20;;;;;;6162993;23;19947;-79
2022/05/30 06:01:15;;;;;;;;;;;15.30;73.20;;;;;;6192974;23;19920;-80
2022/05/30 06:03:42;;;;;;;;;;;15.40;72.80;;;;;;6165070;23;20412;-79
2022/05/30 06:06:08;;;;;;;;;;;15.40;72.50;;;;;;6161436;23;19921;-78
2022/05/30 06:08:35;;;;;;;;;;;15.50;72.40;;;;;;6193136;23;19947;-80
2022/05/30 06:11:05;;;;;;;;;;;15.50;72.20;;;;;;6165541;23;19971;-78
2022/05/30 06:13:32;;;;;;;;;;;15.60;72.60;;;;;;6167513;23;20345;-79
2022/05/30 06:15:59;;;;;;;;;;;15.70;72.70;;;;;;6192757;23;19925;-80
2022/05/30 06:18:26;;;;;;;;;;;15.70;72.80;;;;;;6173746;23;19920;-79
2022/05/30 06:20:57;;;;;;;;;;;15.80;72.80;;;;;;6161596;23;19920;-79
2022/05/30 06:23:23;;;;;;;;;;;15.80;72.70;;;;;;6186167;23;19920;-80
2022/05/30 06:25:50;;;;;;;;;;;15.90;72.60;;;;;;6163443;23;19979;-81
2022/05/30 06:28:17;;;;;;;;;;;15.90;71.50;;;;;;6165140;23;20223;-79
2022/05/30 06:30:43;;;;;;;;;;;15.90;71.70;;;;;;6189060;23;19920;-79
2022/05/30 06:33:10;;;;;;;;;;;15.90;71.00;;;;;;6168621;23;19931;-79
2022/05/30 06:35:41;;;;;;;;;;;15.90;71.20;;;;;;6165417;23;20226;-79
2022/05/30 06:38:09;;;;;;;;;;;15.90;70.90;;;;;;6187611;23;19928;-79
2022/05/30 06:40:35;;;;;;;;;;;15.90;70.90;;;;;;6188392;23;19924;-79
2022/05/30 06:43:03;;;;;;;;;;;15.90;71.00;;;;;;6161300;23;19921;-80
2022/05/30 06:45:33;;;;;;;;;;;15.90;70.30;;;;;;6162171;23;19921;-79
2022/05/30 06:48:00;;;;;;;;;;;15.90;70.40;;;;;;6187214;23;19944;-78
2022/05/30 06:50:27;;;;;;;;;;;15.90;70.60;;;;;;6162947;23;19920;-79
2022/05/30 06:52:54;;;;;;;;;;;16.00;71.10;;;;;;6163254;23;20253;-79
2022/05/30 06:55:21;;;;;;;;;;;15.90;70.70;;;;;;6164141;23;19971;-80
2022/05/30 07:00:33;;;;;;;;;;;15.90;70.70;;;;;;6188289;23;19971;-79
2022/05/30 07:03:00;;;;;;;;;;;16.00;70.30;;;;;;6164076;23;20254;-80
2022/05/30 07:05:27;;;;;;;;;;;16.00;70.40;;;;;;6189570;23;19926;-79
2022/05/30 07:07:56;;;;;;;;;;;16.10;69.80;;;;;;6161410;23;19920;-80
2022/05/30 07:10:24;;;;;;;;;;;16.10;69.50;;;;;;6161768;23;19928;-79
2022/05/30 07:12:51;;;;;;;;;;;16.10;69.10;;;;;;6165128;23;20238;-79
2022/05/30 07:15:18;;;;;;;;;;;16.20;70.40;;;;;;6161160;23;19921;-80
2022/05/30 07:17:51;;;;;;;;;;;16.20;69.60;;;;;;6163720;23;19928;-79
2022/05/30 07:20:18;;;;;;;;;;;16.20;69.70;;;;;;6161386;23;19970;-79
2022/05/30 07:22:45;;;;;;;;;;;16.20;69.70;;;;;;6160714;23;19928;-80
2022/05/30 07:25:12;;;;;;;;;;;16.20;69.00;;;;;;6161946;23;20238;-79
2022/05/30 07:27:39;;;;;;;;;;;16.30;69.50;;;;;;6162211;23;19975;-80
2022/05/30 07:30:06;;;;;;;;;;;16.30;69.10;;;;;;6161366;23;19920;-78
2022/05/30 07:32:33;;;;;;;;;;;16.30;68.90;;;;;;6160805;23;19920;-79
2022/05/30 07:35:00;;;;;;;;;;;16.20;68.60;;;;;;6160862;23;20508;-80
2022/05/30 07:37:27;;;;;;;;;;;16.20;68.70;;;;;;6186701;23;19928;-80
2022/05/30 07:39:54;;;;;;;;;;;16.20;68.60;;;;;;6186234;23;20012;-80
2022/05/30 07:42:23;;;;;;;;;;;16.20;69.10;;;;;;6186795;23;19990;-79
2022/05/30 07:44:49;;;;;;;;;;;16.10;69.00;;;;;;6161329;23;20227;-79
2022/05/30 07:47:17;;;;;;;;;;;16.10;69.10;;;;;;6160318;23;20368;-79
2022/05/30 07:49:44;;;;;;;;;;;16.10;69.50;;;;;;6160842;23;19928;-79
2022/05/30 07:52:11;;;;;;;;;;;16.10;69.20;;;;;;6162240;23;19927;-79
2022/05/30 07:54:38;;;;;;;;;;;16.10;69.20;;;;;;6161742;23;19920;-79
2022/05/30 07:57:05;;;;;;;;;;;16.20;69.40;;;;;;6161528;23;19924;-79
2022/05/30 07:59:35;;;;;;;;;;;16.20;69.50;;;;;;6161270;23;19921;-79
2022/05/30 08:02:03;;;;;;;;;;;16.10;69.90;;;;;;6161747;23;19928;-79
2022/05/30 08:04:30;;;;;;;;;;;16.20;69.60;;;;;;6160914;23;19927;-79
2022/05/30 08:06:57;;;;;;;;;;;16.20;69.60;;;;;;6187541;23;19920;-79
2022/05/30 08:09:23;;;;;;;;;;;16.30;69.50;;;;;;6161297;23;19920;-79
2022/05/30 08:11:50;;;;;;;;;;;16.30;69.60;;;;;;6161491;23;19920;-80
2022/05/30 08:14:17;;;;;;;;;;;16.40;69.70;;;;;;6161707;23;19920;-79
2022/05/30 08:16:44;;;;;;;;;;;16.50;69.60;;;;;;6161739;23;19920;-78
2022/05/30 08:19:16;;;;;;;;;;;16.60;69.20;;;;;;6161801;23;19920;-79
2022/05/30 08:22:10;;;;;;;;;;;16.70;68.50;;;;;;6165229;23;19954;-79
2022/05/30 08:24:37;;;;;;;;;;;17.00;68.00;;;;;;6161273;23;19924;-79
2022/05/30 08:27:05;;;;;;;;;;;17.10;67.60;;;;;;6160860;23;20408;-80
2022/05/30 08:29:32;;;;;;;;;;;17.30;66.80;;;;;;6160743;23;19920;-79
2022/05/30 08:31:59;;;;;;;;;;;17.50;65.50;;;;;;6160655;23;19921;-79
2022/05/30 08:34:26;;;;;;;;;;;17.60;63.20;;;;;;6162466;23;19924;-80
2022/05/30 08:36:53;;;;;;;;;;;17.70;63.30;;;;;;6159789;23;19920;-79
2022/05/30 08:42:07;;;;;;;;;;;17.80;60.40;;;;;;6186346;23;19920;-79
2022/05/30 08:44:34;;;;;;;;;;;17.70;60.00;;;;;;6161867;23;19927;-79
2022/05/30 08:47:05;;;;;;;;;;;17.60;59.90;;;;;;6160536;23;19925;-79
2022/05/30 08:49:34;;;;;;;;;;;17.50;60.60;;;;;;6186185;23;19920;-79
2022/05/30 08:52:34;;;;;;;;;;;17.50;59.80;;;;;;6160188;23;19924;-79
2022/05/30 08:55:15;;;;;;;;;;;17.40;60.50;;;;;;6128047;23;19924;-79
2022/05/30 08:58:00;;;;;;;;;;;17.30;59.50;;;;;;6161794;23;20253;-80
2022/05/30 09:00:35;;;;;;;;;;;17.40;61.00;;;;;;6160270;23;19971;-80
2022/05/30 09:03:21;;;;;;;;;;;17.40;60.50;;;;;;6159802;23;19990;-79
2022/05/30 09:05:56;;;;;;;;;;;17.60;60.30;;;;;;6186504;23;19951;-79
2022/05/30 09:08:29;;;;;;;;;;;17.70;60.10;;;;;;6162442;23;19928;-80
2022/05/30 09:11:02;;;;;;;;;;;17.80;59.60;;;;;;6161966;23;19936;-79
2022/05/30 09:13:33;;;;;;;;;;;17.90;59.90;;;;;;6193973;23;19982;-80
2022/05/30 09:16:26;;;;;;;;;;;18.00;60.50;;;;;;6163002;23;19930;-80
2022/05/30 09:18:53;;;;;;;;;;;18.00;60.90;;;;;;6163493;23;19920;-79
2022/05/30 09:21:28;;;;;;;;;;;18.10;61.30;;;;;;6170256;23;19924;-78
2022/05/30 09:23:55;;;;;;;;;;;18.20;61.20;;;;;;6159803;23;20375;-79
2022/05/30 09:26:23;;;;;;;;;;;18.20;60.60;;;;;;6189448;23;19920;-80
2022/05/30 09:28:51;;;;;;;;;;;18.30;60.60;;;;;;6187761;23;19924;-80
2022/05/30 09:31:20;;;;;;;;;;;18.30;60.60;;;;;;6168597;23;19925;-79
2022/05/30 09:33:52;;;;;;;;;;;18.30;60.10;;;;;;6161488;23;19920;-80
2022/05/30 09:36:20;;;;;;;;;;;18.20;60.40;;;;;;6159349;23;19927;-80
2022/05/30 09:38:50;;;;;;;;;;;18.20;60.60;;;;;;6185711;23;19975;-80
2022/05/30 09:41:18;;;;;;;;;;;18.10;59.70;;;;;;6159421;23;19928;-79
2022/05/30 09:44:04;;;;;;;;;;;18.00;59.90;;;;;;6163684;23;19924;-79
2022/05/30 09:46:36;;;;;;;;;;;18.10;60.40;;;;;;6161890;23;19924;-80
2022/05/30 09:49:04;;;;;;;;;;;18.20;60.30;;;;;;6161426;23;20345;-80
2022/05/30 09:51:34;;;;;;;;;;;18.30;59.60;;;;;;6160641;23;19982;-80
2022/05/30 09:54:01;;;;;;;;;;;18.30;59.60;;;;;;6162576;23;19928;-79
2022/05/30 09:56:28;;;;;;;;;;;18.30;58.90;;;;;;6159608;23;19920;-79
2022/05/30 09:59:13;;;;;;;;;;;18.30;59.20;;;;;;6163921;23;19928;-79
2022/05/30 10:01:41;;;;;;;;;;;18.40;59.20;;;;;;6161086;23;19924;-79
2022/05/30 10:04:13;;;;;;;;;;;18.50;58.80;;;;;;6160608;23;20231;-81
2022/05/30 10:06:39;;;;;;;;;;;18.60;59.00;;;;;;6160058;23;19920;-79
2022/05/30 10:09:10;;;;;;;;;;;18.70;58.60;;;;;;6162335;23;19920;-79
2022/05/30 10:11:38;;;;;;;;;;;18.80;58.60;;;;;;6161253;23;19920;-79
2022/05/30 10:14:21;;;;;;;;;;;18.80;58.60;;;;;;6161600;23;19952;-80
2022/05/30 10:16:48;;;;;;;;;;;18.90;58.50;;;;;;6162332;23;20256;-81
2022/05/30 10:19:27;;;;;;;;;;;18.90;58.90;;;;;;6159742;23;19971;-80
2022/05/30 10:28:27;;;;;;;;;;;18.90;57.00;;;;;;6095476;23;19953;-80
2022/05/30 10:31:10;;;;;;;;;;;18.80;56.90;;;;;;6091620;23;19921;-80
2022/05/30 10:33:37;;;;;;;;;;;18.80;56.70;;;;;;6074117;23;20305;-80
2022/05/30 10:36:33;;;;;;;;;;;18.70;57.30;;;;;;6103032;23;19921;-81
2022/05/30 10:39:11;;;;;;;;;;;18.70;57.70;;;;;;6153823;23;19924;-80
2022/05/30 10:41:48;;;;;;;;;;;18.70;57.40;;;;;;6156332;23;19928;-79
2022/05/30 10:44:21;;;;;;;;;;;18.70;57.50;;;;;;6162208;23;19979;-82
2022/05/30 10:46:54;;;;;;;;;;;18.70;58.20;;;;;;6160353;23;19971;-81
2022/05/30 10:49:22;;;;;;;;;;;18.60;58.60;;;;;;6159605;23;19928;-78
2022/05/30 10:51:58;;;;;;;;;;;18.50;58.00;;;;;;6156401;23;20392;-80
2022/05/30 10:54:31;;;;;;;;;;;18.40;58.40;;;;;;6156404;23;19928;-78
2022/05/30 10:57:15;;;;;;;;;;;18.40;59.00;;;;;;6156517;23;20405;-79
2022/05/30 10:59:49;;;;;;;;;;;18.40;60.90;;;;;;6162624;23;19925;-79
2022/05/30 11:02:27;;;;;;;;;;;18.30;58.30;;;;;;6158022;23;19921;-82
2022/05/30 11:04:59;;;;;;;;;;;18.20;59.60;;;;;;6157306;23;19928;-79
2022/05/30 11:07:28;;;;;;;;;;;18.20;59.10;;;;;;6156393;23;19924;-81
2022/05/30 11:09:59;;;;;;;;;;;18.20;59.90;;;;;;6156961;23;20342;-82
2022/05/30 11:12:29;;;;;;;;;;;18.10;60.30;;;;;;6156331;23;20353;-80
2022/05/30 11:15:11;;;;;;;;;;;18.10;59.70;;;;;;6155891;23;19920;-81
2022/05/30 11:18:13;;;;;;;;;;;18.10;60.10;;;;;;6157236;23;19971;-81
2022/05/30 11:20:45;;;;;;;;;;;18.10;60.60;;;;;;6156323;23;19928;-79
2022/05/30 11:23:12;;;;;;;;;;;18.10;61.00;;;;;;6157340;23;20361;-82
2022/05/30 11:25:48;;;;;;;;;;;18.10;60.90;;;;;;6155094;23;19971;-80
2022/05/30 11:28:39;;;;;;;;;;;18.10;62.00;;;;;;6156305;23;19925;-80
2022/05/30 11:31:35;;;;;;;;;;;18.10;61.00;;;;;;6156772;23;19921;-79
2022/05/30 11:34:02;;;;;;;;;;;18.10;60.90;;;;;;6150035;23;19936;-79
2022/05/30 11:36:38;;;;;;;;;;;18.20;60.90;;;;;;6153802;23;19944;-80
2022/05/30 11:39:05;;;;;;;;;;;18.20;61.30;;;;;;6155901;23;19987;-80
2022/05/30 11:41:35;;;;;;;;;;;18.10;60.10;;;;;;6156735;23;19931;-80
2022/05/30 11:44:34;;;;;;;;;;;18.10;60.60;;;;;;6155456;23;19971;-81
2022/05/30 11:47:07;;;;;;;;;;;18.10;60.30;;;;;;6139191;23;19928;-80
2022/05/30 11:49:39;;;;;;;;;;;18.10;60.30;;;;;;6157151;23;19992;-81
2022/05/30 11:52:16;;;;;;;;;;;18.10;60.40;;;;;;6156203;23;19920;-79
2022/05/30 11:55:02;;;;;;;;;;;18.10;60.40;;;;;;6156275;23;19920;-79
2022/05/30 11:57:42;;;;;;;;;;;18.20;60.50;;;;;;6157328;23;19967;-79
2022/05/30 12:00:19;;;;;;;;;;;18.10;60.30;;;;;;6155299;23;20001;-79
2022/05/30 12:02:58;;;;;;;;;;;18.10;60.80;;;;;;6156439;23;19976;-80
2022/05/30 12:05:25;;;;;;;;;;;18.10;61.50;;;;;;6157394;23;19983;-81
2022/05/30 12:08:10;;;;;;;;;;;18.00;61.80;;;;;;6154378;23;20349;-80
2022/05/30 12:10:37;;;;;;;;;;;17.90;60.90;;;;;;6156636;23;19920;-80
2022/05/30 12:13:23;;;;;;;;;;;17.80;60.90;;;;;;6155409;23;19925;-81
2022/05/30 12:15:53;;;;;;;;;;;17.70;62.00;;;;;;6156018;23;19927;-80
2022/05/30 12:24:27;;;;;;;;;;;17.70;62.70;;;;;;6156293;23;19927;-80
2022/05/30 12:26:59;;;;;;;;;;;17.70;62.90;;;;;;6155063;23;20231;-81
2022/05/30 12:29:33;;;;;;;;;;;17.70;62.90;;;;;;6155059;23;20356;-82
2022/05/30 12:32:19;;;;;;;;;;;17.80;62.60;;;;;;6154842;23;19928;-80
2022/05/30 12:35:02;;;;;;;;;;;17.90;62.10;;;;;;6155214;23;19925;-80
2022/05/30 12:37:47;;;;;;;;;;;17.80;62.00;;;;;;6155185;23;19921;-80
2022/05/30 12:40:26;;;;;;;;;;;17.90;62.60;;;;;;6155107;23;19921;-80
2022/05/30 12:43:08;;;;;;;;;;;17.80;62.60;;;;;;6154928;23;19965;-81
2022/05/30 12:45:41;;;;;;;;;;;17.90;62.80;;;;;;6154151;23;19931;-79
2022/05/30 12:48:27;;;;;;;;;;;17.90;62.10;;;;;;6154572;23;19924;-79
2022/05/30 12:50:54;;;;;;;;;;;17.90;62.10;;;;;;6154789;23;19924;-79
2022/05/30 12:53:22;;;;;;;;;;;18.00;62.20;;;;;;6154412;23;19975;-82
2022/05/30 12:55:52;;;;;;;;;;;18.00;61.60;;;;;;6154522;23;19920;-82
2022/05/30 12:58:21;;;;;;;;;;;18.10;62.10;;;;;;6154528;23;19928;-82
2022/05/30 13:01:20;;;;;;;;;;;18.30;61.50;;;;;;6154902;23;19921;-82
2022/05/30 13:04:07;;;;;;;;;;;18.40;60.50;;;;;;6138658;23;19925;-82
2022/05/30 13:06:43;;;;;;;;;;;18.70;59.70;;;;;;6154676;23;20353;-80
2022/05/30 13:09:25;;;;;;;;;;;18.80;59.20;;;;;;6155549;23;19924;-79
2022/05/30 13:11:55;;;;;;;;;;;18.90;58.70;;;;;;6154346;23;19951;-79
2022/05/30 13:14:22;;;;;;;;;;;19.10;58.20;;;;;;6154556;23;19925;-80
2022/05/30 13:16:51;;;;;;;;;;;19.20;58.40;;;;;;6154064;23;19921;-80
2022/05/30 13:19:23;;;;;;;;;;;19.30;58.00;;;;;;6155505;23;19963;-79
2022/05/30 13:21:50;;;;;;;;;;;19.40;56.60;;;;;;6155156;23;19925;-79
2022/05/30 13:24:28;;;;;;;;;;;19.40;57.90;;;;;;6155261;23;19920;-80
2022/05/30 13:26:55;;;;;;;;;;;19.40;57.00;;;;;;6154465;23;19924;-79
2022/05/30 13:29:29;;;;;;;;;;;19.60;57.80;;;;;;6153384;23;19975;-80
2022/05/30 13:31:56;;;;;;;;;;;19.70;56.70;;;;;;6152608;23;19947;-80
2022/05/30 13:34:28;;;;;;;;;;;19.80;56.30;;;;;;6154692;23;20353;-82
2022/05/30 13:37:00;;;;;;;;;;;19.80;55.50;;;;;;6155802;23;19991;-79
2022/05/30 13:39:27;;;;;;;;;;;19.80;56.00;;;;;;6155764;23;20326;-80
2022/05/30 13:41:56;;;;;;;;;;;19.90;56.20;;;;;;6156179;23;19927;-80
2022/05/30 13:44:32;;;;;;;;;;;19.80;55.80;;;;;;6155378;23;19925;-80
2022/05/30 13:47:06;;;;;;;;;;;19.70;55.20;;;;;;6155309;23;20277;-80
2022/05/30 13:49:39;;;;;;;;;;;19.70;55.90;;;;;;6154123;23;19928;-82
2022/05/30 13:52:11;;;;;;;;;;;19.60;56.00;;;;;;6154856;23;20003;-82
2022/05/30 13:54:42;;;;;;;;;;;19.70;55.70;;;;;;6154063;23;19924;-80
2022/05/30 13:57:10;;;;;;;;;;;19.60;56.00;;;;;;6155463;23;19927;-79
2022/05/30 13:59:45;;;;;;;;;;;19.60;56.70;;;;;;6154458;23;19921;-80
2022/05/30 14:02:33;;;;;;;;;;;19.70;56.40;;;;;;6154145;23;19924;-82
2022/05/30 14:05:11;;;;;;;;;;;19.70;56.20;;;;;;6158028;23;19921;-82
2022/05/30 14:07:43;;;;;;;;;;;19.90;56.80;;;;;;6158649;23;19921;-79
2022/05/30 14:10:12;;;;;;;;;;;20.10;55.80;;;;;;6157356;23;19987;-81
2022/05/30 14:12:58;;;;;;;;;;;20.20;55.60;;;;;;6157877;23;20350;-79
2022/05/30 14:15:27;;;;;;;;;;;20.30;55.50;;;;;;6155670;23;19929;-79
2022/05/30 14:17:54;;;;;;;;;;;20.40;55.40;;;;;;6158518;23;20253;-82
2022/05/30 14:20:24;;;;;;;;;;;20.40;54.40;;;;;;6157500;23;20322;-79
2022/05/30 14:22:57;;;;;;;;;;;20.50;55.10;;;;;;6155741;23;19921;-80
2022/05/30 14:25:29;;;;;;;;;;;20.60;55.10;;;;;;6156196;23;19925;-80
2022/05/30 14:27:56;;;;;;;;;;;20.70;55.00;;;;;;6157376;23;19921;-80
2022/05/30 14:30:25;;;;;;;;;;;20.90;54.60;;;;;;6156859;23;19924;-79
2022/05/30 14:33:05;;;;;;;;;;;21.00;53.20;;;;;;6155924;23;19921;-79
2022/05/30 14:35:33;;;;;;;;;;;21.00;52.70;;;;;;6156219;23;19925;-82
2022/05/30 14:38:02;;;;;;;;;;;20.90;52.00;;;;;;6156537;23;19929;-80
2022/05/30 14:40:32;;;;;;;;;;;20.80;52.50;;;;;;6156591;23;19925;-80
2022/05/30 14:42:59;;;;;;;;;;;20.80;53.00;;;;;;6156930;23;19944;-80
2022/05/30 14:45:36;;;;;;;;;;;20.80;53.50;;;;;;6156617;23;19928;-79
2022/05/30 14:48:08;;;;;;;;;;;20.70;53.40;;;;;;6156160;23;19925;-81
2022/05/30 14:50:41;;;;;;;;;;;20.50;54.00;;;;;;6156486;23;19920;-80
2022/05/30 14:53:10;;;;;;;;;;;20.30;54.50;;;;;;6157650;23;19967;-82
2022/05/30 14:55:40;;;;;;;;;;;20.10;54.90;;;;;;6157696;23;20235;-81
2022/05/30 14:58:11;;;;;;;;;;;20.00;55.40;;;;;;6156529;23;19921;-80